Time;durP1;ratioP1;P1;durP2;ratioP2;P2;SDS_P1;SDS_P2;PMS_P1;PMS_P2;Temp;Humidity;BMP_temperature;BMP_pressure;BME280_temperature;BME280_humidity;BME280_pressure;Samples;Min_cycle;Max_cycle;Signal;HPM_P1;HPM_P2
2021/07/18 00:01:55;;;;;;;9.93;6.00;;;;;;;22.59;59.78;96894.59;5013625;28;20034;-60
2021/07/18 00:04:20;;;;;;;12.38;7.18;;;;;;;22.54;61.01;96887.03;5013851;28;20080;-59
2021/07/18 00:06:46;;;;;;;12.95;7.60;;;;;;;22.41;62.14;96884.28;5014917;28;20535;-59
2021/07/18 00:09:11;;;;;;;10.85;8.23;;;;;;;22.51;62.77;96884.69;5015049;28;20026;-59
2021/07/18 00:11:37;;;;;;;11.20;8.23;;;;;;;22.62;63.10;96877.75;5014585;28;20534;-59
2021/07/18 00:14:03;;;;;;;14.23;9.48;;;;;;;22.55;63.91;96877.75;5013684;28;20394;-59
2021/07/18 00:16:29;;;;;;;12.45;9.23;;;;;;;22.45;64.30;96871.00;5015012;28;20415;-60
2021/07/18 00:18:54;;;;;;;14.32;9.02;;;;;;;22.30;65.14;96874.78;5013831;28;20033;-59
2021/07/18 00:21:20;;;;;;;14.52;8.98;;;;;;;22.44;64.82;96867.41;5014843;28;20503;-59
2021/07/18 00:23:45;;;;;;;12.13;8.93;;;;;;;22.35;65.22;96880.47;5014207;28;20433;-59
2021/07/18 00:26:11;;;;;;;12.90;6.80;;;;;;;22.29;63.80;96877.69;5014226;28;20037;-59
2021/07/18 00:28:36;;;;;;;9.48;5.18;;;;;;;22.17;63.21;96874.75;5014552;28;20022;-59
2021/07/18 00:31:01;;;;;;;8.05;5.25;;;;;;;22.01;63.83;96863.13;5014846;28;20378;-60
2021/07/18 00:33:27;;;;;;;8.10;5.18;;;;;;;21.92;64.38;96867.13;5014790;28;20022;-59
2021/07/18 00:35:52;;;;;;;9.60;6.40;;;;;;;21.78;65.34;96857.19;5014779;28;20056;-59
2021/07/18 00:38:18;;;;;;;9.70;7.15;;;;;;;21.78;65.56;96849.81;5014472;28;20030;-59
2021/07/18 00:40:43;;;;;;;9.85;6.95;;;;;;;21.70;66.04;96845.38;5014146;28;20375;-59
2021/07/18 00:43:09;;;;;;;10.45;6.30;;;;;;;21.77;65.99;96839.94;5013252;28;20033;-60
2021/07/18 00:45:35;;;;;;;10.13;7.43;;;;;;;21.80;66.25;96839.50;5013258;28;20443;-60
2021/07/18 00:48:00;;;;;;;11.48;7.28;;;;;;;21.65;66.94;96830.63;5013099;28;20045;-60
2021/07/18 00:50:26;;;;;;;9.23;6.65;;;;;;;21.74;66.84;96829.41;5012944;28;20490;-59
2021/07/18 00:52:51;;;;;;;10.38;8.27;;;;;;;21.82;66.52;96837.41;5014140;28;20474;-60
2021/07/18 00:55:17;;;;;;;11.60;8.00;;;;;;;22.00;65.99;96828.59;5013077;28;20025;-60
2021/07/18 00:57:47;;;;;;;14.27;8.88;;;;;;;22.05;65.92;96830.72;5013064;28;20029;-59
2021/07/18 01:00:15;;;;;;;10.70;7.50;;;;;;;21.92;66.78;96828.78;5014090;28;20038;-59
2021/07/18 01:02:41;;;;;;;11.70;7.40;;;;;;;21.80;67.21;96823.06;4999435;28;20026;-60
2021/07/18 01:05:08;;;;;;;12.07;7.68;;;;;;;21.80;67.66;96830.47;4998084;28;20030;-59
2021/07/18 01:07:34;;;;;;;10.27;6.72;;;;;;;21.77;67.83;96826.25;5022639;28;20061;-59
2021/07/18 01:10:04;;;;;;;9.77;7.15;;;;;;;21.77;67.70;96834.44;5012066;28;20029;-60
2021/07/18 01:12:31;;;;;;;12.38;8.18;;;;;;;21.64;68.11;96832.50;5013709;28;20038;-59
2021/07/18 01:14:56;;;;;;;10.60;7.93;;;;;;;21.63;68.21;96835.47;5015245;28;20038;-59
2021/07/18 01:17:21;;;;;;;14.20;8.32;;;;;;;21.71;67.38;96832.53;5033792;28;20033;-59
2021/07/18 01:19:47;;;;;;;12.70;9.02;;;;;;;21.83;66.62;96830.91;5033660;28;20055;-59
2021/07/18 01:22:12;;;;;;;12.88;8.13;;;;;;;21.94;66.24;96831.31;5028061;28;20026;-59
2021/07/18 01:24:38;;;;;;;11.75;7.90;;;;;;;21.99;65.63;96826.06;5014337;28;20041;-59
2021/07/18 01:27:05;;;;;;;14.10;7.10;;;;;;;21.95;65.48;96835.75;5012824;28;20371;-59
2021/07/18 01:29:32;;;;;;;10.02;6.53;;;;;;;21.96;64.97;96832.78;5018255;28;20052;-59
2021/07/18 01:31:59;;;;;;;11.25;6.50;;;;;;;22.02;63.34;96831.09;5012834;28;20405;-59
2021/07/18 01:34:24;;;;;;;12.60;6.68;;;;;;;22.10;62.54;96825.44;5013900;28;20483;-59
2021/07/18 01:36:51;;;;;;;8.65;6.60;;;;;;;22.14;61.90;96818.50;5013106;28;20560;-59
2021/07/18 01:39:17;;;;;;;8.57;6.30;;;;;;;22.19;61.90;96813.25;5012192;28;20025;-59
2021/07/18 01:41:43;;;;;;;8.80;5.97;;;;;;;22.22;61.87;96811.94;5013568;28;20037;-59
2021/07/18 01:44:08;;;;;;;8.20;6.25;;;;;;;22.27;61.44;96814.91;5013354;28;20033;-60
2021/07/18 01:46:35;;;;;;;8.57;5.03;;;;;;;22.28;61.17;96816.59;5013380;28;20038;-59
2021/07/18 01:49:03;;;;;;;9.05;4.57;;;;;;;22.17;61.21;96815.34;5012214;28;20033;-59
2021/07/18 01:51:29;;;;;;;8.15;4.63;;;;;;;22.16;61.79;96810.91;5013297;28;20398;-59
2021/07/18 01:53:56;;;;;;;7.70;4.60;;;;;;;22.11;61.73;96807.94;5012151;28;20467;-59
2021/07/18 01:56:22;;;;;;;8.73;4.57;;;;;;;22.01;62.08;96808.38;5013348;28;20026;-59
2021/07/18 01:58:50;;;;;;;7.45;4.55;;;;;;;22.02;62.50;96809.19;5013251;28;20133;-60
2021/07/18 02:01:16;;;;;;;7.90;4.93;;;;;;;21.98;62.74;96810.69;5013163;28;20026;-60
2021/07/18 02:03:42;;;;;;;8.07;4.80;;;;;;;22.02;61.65;96810.06;5012004;28;20390;-59
2021/07/18 02:06:09;;;;;;;9.02;5.05;;;;;;;22.14;60.68;96809.44;5013126;28;20022;-59
2021/07/18 02:08:34;;;;;;;8.90;5.20;;;;;;;22.08;60.93;96813.84;5012333;28;20031;-60
2021/07/18 02:10:59;;;;;;;7.43;4.90;;;;;;;22.12;60.49;96815.13;5013607;28;20026;-59
2021/07/18 02:13:25;;;;;;;6.88;4.53;;;;;;;22.14;59.85;96804.81;5013177;28;20030;-59
2021/07/18 02:15:50;;;;;;;8.20;4.72;;;;;;;22.03;59.93;96809.03;5012169;28;20033;-59
2021/07/18 02:18:15;;;;;;;7.20;4.07;;;;;;;21.98;59.13;96811.53;5012897;28;20061;-60
2021/07/18 02:20:41;;;;;;;6.13;3.60;;;;;;;21.94;59.25;96810.28;5013222;28;20043;-59
2021/07/18 02:23:07;;;;;;;5.45;3.60;;;;;;;21.90;58.85;96815.31;5011609;28;20053;-59
2021/07/18 02:25:32;;;;;;;5.47;3.53;;;;;;;21.90;58.74;96818.03;5011897;28;20490;-60
2021/07/18 02:27:58;;;;;;;6.95;4.00;;;;;;;21.93;58.41;96819.53;5011743;28;20025;-60
2021/07/18 02:30:25;;;;;;;5.57;3.50;;;;;;;22.00;57.64;96819.53;5012813;28;20105;-59
2021/07/18 02:32:50;;;;;;;5.60;3.40;;;;;;;22.07;57.30;96820.38;5011852;28;20028;-59
2021/07/18 02:35:17;;;;;;;4.72;3.20;;;;;;;22.05;56.86;96822.50;5011816;28;20026;-59
2021/07/18 02:37:44;;;;;;;6.15;3.30;;;;;;;22.05;56.71;96822.50;5011799;28;20033;-59
2021/07/18 02:40:11;;;;;;;4.97;3.10;;;;;;;21.99;56.03;96828.78;5011658;28;20033;-59
2021/07/18 02:42:36;;;;;;;4.95;3.00;;;;;;;22.00;55.82;96831.31;5013010;28;20062;-59
2021/07/18 02:45:04;;;;;;;5.30;2.70;;;;;;;21.94;56.23;96828.56;5013133;28;20080;-59
2021/07/18 02:47:30;;;;;;;4.30;2.63;;;;;;;21.94;55.16;96832.19;5012167;28;20466;-59
2021/07/18 02:49:55;;;;;;;6.28;2.70;;;;;;;21.87;54.96;96834.91;5015442;28;20076;-60
2021/07/18 02:52:20;;;;;;;5.45;2.70;;;;;;;21.90;54.37;96837.22;5016526;28;20101;-59
2021/07/18 02:54:46;;;;;;;4.78;2.70;;;;;;;21.96;54.41;96834.69;5016505;28;20068;-59
2021/07/18 02:57:11;;;;;;;3.85;2.90;;;;;;;21.96;54.26;96829.22;5016230;28;20029;-59
2021/07/18 02:59:36;;;;;;;2.92;2.50;;;;;;;21.89;54.79;96837.44;5014681;28;20068;-60
2021/07/18 03:02:02;;;;;;;4.60;2.70;;;;;;;21.83;54.60;96836.38;5016431;28;20111;-59
2021/07/18 03:04:28;;;;;;;4.60;2.92;;;;;;;21.89;54.46;96835.50;5016359;28;20026;-60
2021/07/18 03:06:54;;;;;;;3.80;2.70;;;;;;;21.88;54.66;96825.63;5015305;28;20088;-60
2021/07/18 03:09:23;;;;;;;5.13;3.25;;;;;;;21.93;54.62;96829.63;5016259;28;20470;-60
2021/07/18 03:11:49;;;;;;;5.35;3.00;;;;;;;21.85;55.44;96833.41;5016042;28;20534;-59
2021/07/18 03:14:14;;;;;;;4.78;2.80;;;;;;;21.89;55.35;96832.78;5031299;28;20056;-59
2021/07/18 03:16:40;;;;;;;4.10;2.90;;;;;;;22.00;55.00;96836.78;5015962;28;20022;-59
2021/07/18 03:19:05;;;;;;;4.82;2.67;;;;;;;22.10;54.31;96841.03;5015832;28;20030;-59
2021/07/18 03:21:34;;;;;;;4.13;2.88;;;;;;;22.03;54.41;96841.88;5015604;28;20416;-59
2021/07/18 03:24:03;;;;;;;4.30;2.80;;;;;;;22.03;54.43;96841.00;5015743;28;20032;-59
2021/07/18 03:26:28;;;;;;;4.50;2.70;;;;;;;22.08;54.16;96839.31;5014284;28;20033;-59
2021/07/18 03:28:54;;;;;;;3.38;2.55;;;;;;;22.15;53.33;96841.25;5015837;28;20536;-58
2021/07/18 03:31:19;;;;;;;4.47;2.58;;;;;;;22.16;52.47;96840.19;5014895;28;20041;-59
2021/07/18 03:33:44;;;;;;;3.58;2.40;;;;;;;22.17;53.00;96839.16;5015569;28;20076;-59
2021/07/18 03:36:10;;;;;;;4.43;2.42;;;;;;;22.19;51.96;96839.75;5015931;28;20038;-59
2021/07/18 03:38:35;;;;;;;3.65;2.13;;;;;;;22.15;52.71;96847.56;5015418;28;20029;-59
2021/07/18 03:41:01;;;;;;;3.42;2.30;;;;;;;22.11;52.64;96842.72;5015227;28;20026;-59
2021/07/18 03:43:26;;;;;;;2.63;2.20;;;;;;;22.08;52.79;96839.31;5015696;28;20101;-59
2021/07/18 03:45:52;;;;;;;2.35;2.15;;;;;;;22.04;51.72;96838.06;5015530;28;20034;-59
2021/07/18 03:48:17;;;;;;;2.80;2.00;;;;;;;22.01;51.55;96843.97;5015289;28;20034;-59
2021/07/18 03:50:42;;;;;;;4.35;2.00;;;;;;;22.13;51.52;96843.34;5015400;28;20458;-59
2021/07/18 03:53:11;;;;;;;4.15;2.00;;;;;;;22.10;51.92;96843.75;5015639;28;20022;-59
2021/07/18 03:55:36;;;;;;;3.03;2.00;;;;;;;21.99;51.27;96847.97;5015061;28;20065;-59
2021/07/18 03:58:01;;;;;;;4.47;2.10;;;;;;;22.06;50.59;96851.53;5015234;28;20092;-60
2021/07/18 04:00:27;;;;;;;2.17;1.98;;;;;;;22.05;49.40;96850.72;5014544;28;20065;-60
2021/07/18 04:02:52;;;;;;;2.92;2.08;;;;;;;21.78;52.45;96851.69;5015262;28;20072;-59
2021/07/18 04:05:18;;;;;;;4.32;1.95;;;;;;;21.55;53.18;96858.38;5015117;28;20626;-60
2021/07/18 04:07:43;;;;;;;3.42;2.20;;;;;;;21.46;54.04;96860.44;5015198;28;20088;-59
2021/07/18 04:10:09;;;;;;;3.38;2.30;;;;;;;21.37;54.96;96862.47;5014980;28;20124;-60
2021/07/18 04:12:34;;;;;;;2.45;2.08;;;;;;;21.19;55.15;96863.03;5015146;28;20030;-59
2021/07/18 04:15:00;;;;;;;5.60;2.70;;;;;;;21.32;55.46;96866.88;5015301;28;20044;-59
2021/07/18 04:17:25;;;;;;;5.00;2.80;;;;;;;21.29;55.67;96870.03;5014864;28;20466;-59
2021/07/18 04:19:51;;;;;;;4.50;2.67;;;;;;;21.26;55.92;96875.88;5013539;28;20032;-59
2021/07/18 04:22:16;;;;;;;5.45;2.50;;;;;;;21.28;55.97;96871.91;5014578;28;20113;-59
2021/07/18 04:24:41;;;;;;;3.60;2.92;;;;;;;21.28;56.15;96877.38;5014847;28;20154;-59
2021/07/18 04:27:07;;;;;;;4.72;2.90;;;;;;;21.28;56.32;96874.63;5013520;28;20055;-59
2021/07/18 04:29:32;;;;;;;5.00;2.70;;;;;;;21.32;56.43;96878.66;5012914;28;20037;-59
2021/07/18 04:31:58;;;;;;;4.15;2.60;;;;;;;21.26;56.75;96890.44;5013718;28;20056;-59
2021/07/18 04:34:23;;;;;;;3.85;2.60;;;;;;;21.24;57.22;96887.03;5014528;28;20030;-59
2021/07/18 04:36:48;;;;;;;4.03;2.58;;;;;;;21.27;57.05;96892.09;5014473;28;20097;-59
2021/07/18 04:39:14;;;;;;;6.60;2.70;;;;;;;21.29;56.03;96897.38;5014741;28;20030;-59
2021/07/18 04:41:40;;;;;;;3.47;2.50;;;;;;;21.35;55.69;96896.56;5014512;28;20096;-59
2021/07/18 04:44:05;;;;;;;4.43;2.40;;;;;;;21.44;55.17;96887.13;5014612;28;20037;-59
2021/07/18 04:46:31;;;;;;;4.63;2.50;;;;;;;21.51;55.06;96887.16;5014556;28;20036;-59
2021/07/18 04:48:56;;;;;;;3.20;2.38;;;;;;;21.61;54.17;96890.41;5014311;28;20477;-59
2021/07/18 04:51:22;;;;;;;4.70;2.65;;;;;;;21.63;53.47;96896.50;4996642;28;20478;-59
2021/07/18 04:53:47;;;;;;;3.75;2.58;;;;;;;21.66;54.47;96900.72;5014058;28;20030;-59
2021/07/18 04:56:14;;;;;;;2.90;2.30;;;;;;;21.56;54.14;96896.47;5014166;28;20378;-59
2021/07/18 04:58:40;;;;;;;3.97;2.30;;;;;;;21.62;54.18;96905.78;5012352;28;20060;-59
2021/07/18 05:01:07;;;;;;;5.18;2.80;;;;;;;21.65;54.64;96905.34;5013970;28;20034;-59
2021/07/18 05:03:32;;;;;;;3.83;2.78;;;;;;;21.75;54.63;96902.22;5014069;28;20041;-59
2021/07/18 05:05:58;;;;;;;6.35;3.30;;;;;;;21.87;54.44;96903.34;5013639;28;20398;-59
2021/07/18 05:08:23;;;;;;;5.10;3.25;;;;;;;21.89;54.80;96905.88;5013943;28;20022;-59
2021/07/18 05:10:49;;;;;;;6.38;3.17;;;;;;;21.91;54.37;96909.22;5013209;28;20130;-60
2021/07/18 05:13:14;;;;;;;3.40;2.60;;;;;;;21.97;54.23;96911.16;5012935;28;20026;-59
2021/07/18 05:15:39;;;;;;;3.10;2.55;;;;;;;21.94;54.84;96913.44;5012877;28;20021;-59
2021/07/18 05:18:09;;;;;;;3.95;2.60;;;;;;;22.02;54.42;96910.50;5013633;28;20026;-59
2021/07/18 05:20:35;;;;;;;4.60;2.53;;;;;;;22.01;55.02;96909.69;5013591;28;20026;-59
2021/07/18 05:23:01;;;;;;;3.70;2.30;;;;;;;21.99;54.75;96910.94;5012959;28;20276;-60
2021/07/18 05:25:27;;;;;;;4.93;2.20;;;;;;;22.08;54.50;96909.69;5013586;28;20069;-60
2021/07/18 05:27:52;;;;;;;4.45;2.33;;;;;;;22.07;53.20;96906.13;5013427;28;20109;-60
2021/07/18 05:30:18;;;;;;;3.03;2.40;;;;;;;22.18;53.24;96915.63;5013661;28;20026;-60
2021/07/18 05:32:43;;;;;;;3.80;2.60;;;;;;;22.22;53.21;96910.56;5012001;28;20034;-60
2021/07/18 05:35:10;;;;;;;7.22;2.78;;;;;;;22.21;52.84;96915.19;5009032;28;20505;-59
2021/07/18 05:37:35;;;;;;;4.88;2.42;;;;;;;22.16;53.35;96923.19;5013155;28;20022;-58
2021/07/18 05:40:05;;;;;;;4.78;2.47;;;;;;;22.16;55.32;96922.34;5012593;28;20030;-59
2021/07/18 05:42:31;;;;;;;4.05;2.50;;;;;;;22.09;55.33;96914.13;5012587;28;20058;-60
2021/07/18 05:44:56;;;;;;;3.85;2.25;;;;;;;22.05;56.09;96926.53;5012769;28;20069;-61
2021/07/18 05:47:21;;;;;;;4.05;2.60;;;;;;;22.12;56.30;96921.09;5013108;28;20030;-60
2021/07/18 05:49:47;;;;;;;6.00;2.65;;;;;;;22.17;57.92;96930.34;5012932;28;20030;-61
2021/07/18 05:52:12;;;;;;;7.25;2.42;;;;;;;22.13;59.12;96928.22;5012854;28;20026;-60
2021/07/18 05:54:38;;;;;;;4.90;2.53;;;;;;;22.07;58.11;96935.38;5013410;28;20526;-61
2021/07/18 05:57:04;;;;;;;5.88;2.70;;;;;;;22.12;57.86;96929.31;5013117;28;20536;-60
2021/07/18 05:59:30;;;;;;;4.63;2.40;;;;;;;22.11;59.18;96925.69;5012957;28;20197;-60
2021/07/18 06:01:55;;;;;;;3.05;2.30;;;;;;;22.16;60.64;96938.78;5012936;28;20033;-60
2021/07/18 06:04:20;;;;;;;4.43;2.40;;;;;;;22.11;60.20;96933.09;5012594;28;20030;-61
2021/07/18 06:06:46;;;;;;;3.97;2.38;;;;;;;22.23;60.91;96928.69;4995070;28;20026;-60
2021/07/18 06:09:11;;;;;;;4.65;2.65;;;;;;;22.27;60.87;96929.94;5012655;28;20081;-60
2021/07/18 06:11:37;;;;;;;6.68;2.75;;;;;;;22.35;61.18;96929.78;5012009;28;20037;-61
2021/07/18 06:14:02;;;;;;;4.90;2.63;;;;;;;22.43;61.00;96928.75;5012787;28;20402;-60
2021/07/18 06:16:28;;;;;;;8.45;5.43;;;;;;;22.39;59.47;96922.00;5011702;28;20371;-60
2021/07/18 06:18:53;;;;;;;6.50;4.20;;;;;;;22.40;60.24;96924.53;5012495;28;20084;-59
2021/07/18 06:21:19;;;;;;;9.82;6.35;;;;;;;22.41;60.03;96922.63;5013099;28;20458;-60
2021/07/18 06:23:45;;;;;;;11.15;6.72;;;;;;;22.45;58.10;96914.81;5015143;28;20486;-60
2021/07/18 06:26:11;;;;;;;8.77;6.60;;;;;;;22.43;59.06;96928.75;5015998;28;20026;-62
2021/07/18 06:28:36;;;;;;;9.27;6.43;;;;;;;22.38;58.65;96934.00;5016195;28;20470;-62
2021/07/18 06:31:02;;;;;;;11.13;6.72;;;;;;;22.35;59.54;96920.72;5016878;28;20544;-60
2021/07/18 06:33:27;;;;;;;9.88;7.10;;;;;;;22.34;58.93;96919.00;5011522;28;20478;-60
2021/07/18 06:35:53;;;;;;;9.60;6.13;;;;;;;22.44;60.63;96919.47;5048110;28;20030;-60
2021/07/18 06:38:18;;;;;;;9.88;6.40;;;;;;;22.45;59.26;96921.16;5016426;28;20394;-59
2021/07/18 06:40:44;;;;;;;9.10;5.93;;;;;;;22.70;58.62;96917.78;5016446;28;20548;-59
2021/07/18 06:43:09;;;;;;;9.15;6.20;;;;;;;22.65;57.37;96921.19;5016423;28;20390;-59
2021/07/18 06:45:34;;;;;;;10.10;5.32;;;;;;;22.72;58.33;96910.22;5014683;28;20076;-59
2021/07/18 06:48:00;;;;;;;12.45;5.70;;;;;;;22.93;56.89;96917.38;5016380;28;20498;-59
2021/07/18 06:50:25;;;;;;;8.13;6.03;;;;;;;22.95;56.31;96908.94;5016034;28;20423;-59
2021/07/18 06:52:52;;;;;;;9.45;5.35;;;;;;;23.05;56.04;96907.44;5015428;28;20105;-59
2021/07/18 06:55:18;;;;;;;9.32;5.65;;;;;;;23.12;55.74;96901.94;5014439;28;20021;-58
2021/07/18 06:57:50;;;;;;;9.38;5.50;;;;;;;23.03;55.09;96898.56;5015967;28;20029;-59
2021/07/18 07:00:17;;;;;;;8.50;4.85;;;;;;;23.13;54.65;96898.19;5014699;28;20037;-60
2021/07/18 07:02:43;;;;;;;9.52;4.90;;;;;;;23.20;54.45;96895.41;5014918;28;20033;-59
2021/07/18 07:05:09;;;;;;;10.50;5.70;;;;;;;23.26;54.02;96900.03;5014007;28;20037;-59
2021/07/18 07:07:35;;;;;;;15.57;10.40;;;;;;;23.30;53.63;96904.03;5012754;28;20018;-59
2021/07/18 07:10:00;;;;;;;8.95;4.95;;;;;;;23.15;54.75;96901.53;4997892;28;20022;-58
2021/07/18 07:12:25;;;;;;;9.75;4.18;;;;;;;23.48;55.28;96903.34;5014847;28;20434;-59
2021/07/18 07:14:51;;;;;;;6.88;4.32;;;;;;;23.60;52.93;96900.78;5014969;28;20061;-62
2021/07/18 07:17:16;;;;;;;6.70;4.28;;;;;;;23.78;53.18;96901.97;5013568;28;20057;-61
2021/07/18 07:19:42;;;;;;;7.47;3.80;;;;;;;24.13;51.69;96893.34;5013446;28;20125;-63
2021/07/18 07:22:08;;;;;;;4.72;3.65;;;;;;;24.06;51.30;96893.38;5014774;28;20021;-62
2021/07/18 07:24:34;;;;;;;6.95;3.70;;;;;;;24.29;50.75;96892.84;5008733;28;20022;-62
2021/07/18 07:26:59;;;;;;;4.80;3.42;;;;;;;24.51;50.06;96890.53;5046359;28;20038;-61
2021/07/18 07:29:24;;;;;;;6.40;3.47;;;;;;;24.83;50.44;96893.28;5014825;28;20033;-62
2021/07/18 07:31:50;;;;;;;5.65;3.88;;;;;;;24.47;52.07;96896.72;5014669;28;20030;-63
2021/07/18 07:34:15;;;;;;;8.85;3.58;;;;;;;24.55;51.65;96891.78;5012864;28;20394;-61
2021/07/18 07:36:41;;;;;;;6.07;3.28;;;;;;;24.69;51.59;96895.31;5013101;28;20107;-62
2021/07/18 07:39:06;;;;;;;7.32;3.30;;;;;;;24.76;51.26;96889.75;5006753;28;20030;-59
2021/07/18 07:41:31;;;;;;;8.00;4.43;;;;;;;24.72;49.94;96894.03;5018900;28;20034;-63
2021/07/18 07:43:59;;;;;;;5.47;3.50;;;;;;;24.80;50.87;96892.88;5018723;28;20025;-60
2021/07/18 07:46:25;;;;;;;6.25;3.70;;;;;;;24.79;50.27;96885.72;5030403;28;20748;-61
2021/07/18 07:48:51;;;;;;;7.05;3.38;;;;;;;25.01;49.70;96883.38;5033827;28;20030;-62
2021/07/18 07:51:16;;;;;;;7.30;3.45;;;;;;;24.90;50.16;96891.28;5011981;28;20107;-61
2021/07/18 07:53:42;;;;;;;8.70;4.07;;;;;;;24.77;50.12;96885.91;5012324;28;20022;-61
2021/07/18 07:56:07;;;;;;;4.97;3.30;;;;;;;24.70;51.99;96885.97;5020916;28;20510;-61
2021/07/18 07:58:33;;;;;;;7.18;3.90;;;;;;;24.57;52.51;96881.41;5021434;28;20107;-62
2021/07/18 08:00:59;;;;;;;9.63;4.20;;;;;;;24.52;52.50;96889.47;5012685;28;20022;-61
2021/07/18 08:03:25;;;;;;;8.35;4.93;;;;;;;24.47;53.08;96893.97;5022595;28;20040;-61
2021/07/18 08:05:51;;;;;;;7.63;4.50;;;;;;;24.68;53.58;96890.00;5024100;28;20038;-60
2021/07/18 08:08:17;;;;;;;7.95;4.40;;;;;;;24.95;52.61;96893.38;5054047;28;20088;-61
2021/07/18 08:10:42;;;;;;;7.60;4.90;;;;;;;25.02;51.12;96883.13;5031303;28;20029;-60
2021/07/18 08:13:07;;;;;;;7.60;4.22;;;;;;;25.15;50.03;96884.91;5028973;28;20022;-60
2021/07/18 08:15:34;;;;;;;7.38;4.63;;;;;;;25.01;51.71;96886.97;5033207;28;20037;-61
2021/07/18 08:17:59;;;;;;;8.57;4.70;;;;;;;25.08;52.02;96892.41;5016860;28;20113;-60
2021/07/18 08:20:26;;;;;;;10.27;3.97;;;;;;;25.20;51.18;96892.47;5020028;28;20125;-62
2021/07/18 08:22:54;;;;;;;8.48;4.90;;;;;;;25.35;50.52;96890.25;5017374;28;20025;-62
2021/07/18 08:25:21;;;;;;;7.60;5.10;;;;;;;25.47;52.57;96881.19;5004171;28;20045;-62
2021/07/18 08:27:46;;;;;;;9.70;4.70;;;;;;;25.60;52.23;96889.28;5013539;28;20703;-63
2021/07/18 08:30:13;;;;;;;9.93;5.03;;;;;;;25.53;51.48;96885.78;5013845;28;20102;-63
2021/07/18 08:32:38;;;;;;;7.82;4.65;;;;;;;25.63;50.58;96879.75;5012247;28;20115;-62
2021/07/18 08:35:05;;;;;;;9.25;4.93;;;;;;;25.71;51.73;96893.22;5011277;28;20056;-63
2021/07/18 08:37:30;;;;;;;11.02;6.70;;;;;;;25.49;52.74;96893.66;5009645;28;20052;-63
2021/07/18 08:39:56;;;;;;;9.60;4.80;;;;;;;25.43;51.77;96885.47;5007320;28;20546;-62
2021/07/18 08:42:22;;;;;;;8.20;4.93;;;;;;;25.71;51.67;96891.28;5010002;28;20415;-63
2021/07/18 08:44:47;;;;;;;8.55;4.40;;;;;;;26.03;50.80;96880.09;5009752;28;20048;-63
2021/07/18 08:47:12;;;;;;;7.82;4.35;;;;;;;25.99;51.66;96886.25;4993273;28;20105;-63
2021/07/18 08:49:39;;;;;;;9.30;4.30;;;;;;;25.73;50.83;96888.31;5011842;28;20477;-62
2021/07/18 08:52:05;;;;;;;6.15;3.63;;;;;;;25.62;50.18;96886.34;5011134;28;20029;-62
2021/07/18 08:54:32;;;;;;;7.38;3.42;;;;;;;25.56;49.71;96897.19;5011598;28;20496;-62
2021/07/18 08:57:00;;;;;;;5.03;3.20;;;;;;;25.68;50.06;96894.50;5040987;28;20026;-62
2021/07/18 08:59:26;;;;;;;5.75;3.55;;;;;;;26.20;49.01;96896.81;5008156;28;20074;-62
2021/07/18 09:01:52;;;;;;;6.55;2.92;;;;;;;26.31;48.20;96891.56;4989907;28;20034;-62
2021/07/18 09:04:17;;;;;;;5.53;3.00;;;;;;;26.22;47.38;96894.66;5007811;28;20026;-63
2021/07/18 09:06:44;;;;;;;7.63;3.38;;;;;;;26.37;46.79;96894.22;5010108;28;20014;-62
2021/07/18 09:09:12;;;;;;;19.70;13.07;;;;;;;26.47;46.13;96890.03;5011433;28;20010;-63
2021/07/18 09:11:38;;;;;;;9.20;5.65;;;;;;;26.49;46.14;96894.25;5008800;28;20680;-61
2021/07/18 09:14:05;;;;;;;35.65;26.60;;;;;;;26.54;46.32;96890.78;5013275;28;20022;-67
2021/07/18 09:16:34;;;;;;;7.38;3.75;;;;;;;26.61;45.73;96888.75;5028644;28;20048;-67
2021/07/18 09:19:20;;;;;;;4.22;2.90;;;;;;;26.67;46.03;96890.56;5013034;28;20025;-67
2021/07/18 09:22:04;;;;;;;5.03;2.83;;;;;;;26.67;45.99;96890.56;5011075;28;20040;-63
2021/07/18 09:24:54;;;;;;;5.60;2.83;;;;;;;26.94;46.24;96886.53;5011509;28;20044;-67
2021/07/18 09:27:34;;;;;;;8.35;3.17;;;;;;;27.19;46.14;96892.66;5009886;28;20659;-64
2021/07/18 09:30:08;;;;;;;5.17;2.90;;;;;;;27.30;45.31;96888.22;5010414;28;20029;-67
2021/07/18 09:32:35;;;;;;;3.50;2.67;;;;;;;27.25;45.48;96892.78;5012509;28;20032;-67
2021/07/18 09:35:04;;;;;;;7.20;3.42;;;;;;;27.10;46.16;96882.22;5012365;28;20026;-71
2021/07/18 09:37:35;;;;;;;9.18;6.10;;;;;;;27.41;45.80;96883.78;5011336;28;20037;-64
2021/07/18 09:40:17;;;;;;;8.93;3.80;;;;;;;27.48;45.54;96883.66;5010170;28;20025;-63
2021/07/18 09:42:47;;;;;;;113.38;65.30;;;;;;;27.66;44.19;96879.88;5011352;28;20474;-64
2021/07/18 09:45:12;;;;;;;8.10;3.65;;;;;;;27.62;43.76;96884.22;5012480;28;20038;-63
2021/07/18 09:48:08;;;;;;;13.02;6.55;;;;;;;27.45;43.01;96875.88;5012286;28;20021;-63
2021/07/18 09:50:39;;;;;;;4.38;2.65;;;;;;;27.73;42.23;96872.31;5012377;28;20018;-64
2021/07/18 09:53:17;;;;;;;5.78;2.75;;;;;;;27.48;42.23;96869.84;5011327;28;20026;-65
2021/07/18 09:55:58;;;;;;;6.72;2.70;;;;;;;27.39;43.00;96870.22;5009242;28;20490;-66
2021/07/18 09:58:24;;;;;;;;;;;;;;;27.38;43.14;96871.31;5013952;28;20041;-68
2021/07/18 10:00:49;;;;;;;47.38;33.47;;;;;;;27.67;42.42;96870.50;4998625;28;19921;-64
2021/07/18 10:03:22;;;;;;;4.07;2.70;;;;;;;27.82;42.20;96859.78;5009219;28;20099;-65
2021/07/18 10:06:06;;;;;;;4.72;2.53;;;;;;;28.03;42.30;96863.81;5015855;28;20106;-67
2021/07/18 10:08:31;;;;;;;9.48;5.47;;;;;;;28.10;42.37;96852.63;5014532;28;20037;-67
2021/07/18 10:10:57;;;;;;;5.70;3.08;;;;;;;28.17;42.27;96855.22;5016644;28;20018;-67
2021/07/18 10:13:23;;;;;;;157.30;107.13;;;;;;;28.26;41.16;96848.22;5016691;28;20021;-63
2021/07/18 10:15:49;;;;;;;24.95;16.48;;;;;;;28.42;41.79;96849.28;5017091;28;20129;-65
2021/07/18 10:18:14;;;;;;;355.13;249.18;;;;;;;28.54;41.98;96850.06;5048961;28;20061;-65
2021/07/18 10:20:40;;;;;;;11.70;6.15;;;;;;;28.59;41.20;96854.00;5016837;28;20466;-66
2021/07/18 10:23:06;;;;;;;5.78;3.00;;;;;;;28.54;42.08;96846.44;5015821;28;20022;-67
2021/07/18 10:25:32;;;;;;;5.57;2.80;;;;;;;28.58;41.98;96853.16;5016803;28;20109;-70
2021/07/18 10:27:58;;;;;;;6.05;3.10;;;;;;;28.49;42.05;96857.41;5015557;28;20060;-65
2021/07/18 10:30:24;;;;;;;30.63;22.48;;;;;;;28.59;42.38;96851.25;5015785;28;20049;-66
2021/07/18 10:32:52;;;;;;;10.88;2.83;;;;;;;28.69;43.22;96848.69;5015639;28;20471;-68
2021/07/18 10:35:19;;;;;;;7.15;3.10;;;;;;;28.64;42.34;96845.78;5015667;28;20057;-69
2021/07/18 10:37:44;;;;;;;14.13;8.85;;;;;;;28.47;42.70;96852.16;5014940;28;20029;-71
2021/07/18 10:40:18;;;;;;;18.58;13.05;;;;;;;28.34;42.01;96853.31;5016798;28;20034;-70
2021/07/18 10:42:43;;;;;;;7.30;4.38;;;;;;;28.39;42.17;96841.50;5015355;28;20022;-67
2021/07/18 10:45:16;;;;;;;43.65;31.90;;;;;;;28.51;42.03;96853.31;5015112;28;20041;-67
2021/07/18 10:48:14;;;;;;;29.30;23.58;;;;;;;28.57;42.83;96848.72;5009175;28;20037;-62
2021/07/18 10:50:42;;;;;;;7.40;3.13;;;;;;;28.50;41.86;96857.19;4999177;28;20038;-61
2021/07/18 10:53:25;;;;;;;4.75;2.72;;;;;;;28.64;42.82;96859.63;5028782;28;20048;-61
2021/07/18 10:55:52;;;;;;;7.82;3.20;;;;;;;28.64;42.24;96860.50;5027919;28;20072;-62
2021/07/18 10:58:39;;;;;;;10.23;4.78;;;;;;;28.73;43.10;96855.38;5017713;28;20105;-63
2021/07/18 11:01:05;;;;;;;6.10;3.03;;;;;;;28.62;41.82;96859.88;5008092;28;20040;-64
2021/07/18 11:03:35;;;;;;;7.72;3.25;;;;;;;28.63;42.62;96857.94;5024373;28;20117;-65
2021/07/18 11:06:26;;;;;;;6.60;3.00;;;;;;;28.72;42.66;96862.00;5027933;28;20030;-63
2021/07/18 11:09:18;;;;;;;4.82;2.80;;;;;;;28.67;42.00;96859.16;5007400;28;20028;-66
2021/07/18 11:11:57;;;;;;;9.38;3.40;;;;;;;28.89;42.09;96849.00;5027039;28;20025;-64
2021/07/18 11:14:34;;;;;;;3.83;2.42;;;;;;;28.76;41.18;96846.56;5017828;28;20022;-64
2021/07/18 11:17:01;;;;;;;2.97;2.55;;;;;;;28.83;42.17;96847.22;5030088;28;20422;-63
2021/07/18 11:19:39;;;;;;;4.45;2.80;;;;;;;29.00;42.09;96855.53;5023525;28;20029;-63
2021/07/18 11:22:06;;;;;;;6.00;2.70;;;;;;;29.07;42.09;96849.81;5021487;28;20036;-63
2021/07/18 11:24:55;;;;;;;4.68;2.75;;;;;;;29.08;41.60;96851.50;5031669;28;20462;-62
2021/07/18 11:27:26;;;;;;;3.78;2.60;;;;;;;29.27;41.53;96843.75;5023702;28;20112;-62
2021/07/18 11:29:52;;;;;;;4.25;2.60;;;;;;;29.32;42.23;96845.78;5015323;28;20572;-63
2021/07/18 11:32:32;;;;;;;3.03;2.40;;;;;;;29.36;41.49;96849.69;5013840;28;20025;-64